createdAt,value
2022-10-21T00:02:09.767Z,1.73
2022-10-21T00:05:13.442Z,2.05
2022-10-21T00:08:15.719Z,2.03
2022-10-21T00:11:17.749Z,1.38
2022-10-21T00:14:20.060Z,1.88
2022-10-21T00:17:22.849Z,1.63
2022-10-21T00:20:24.707Z,2.22
2022-10-21T00:23:26.748Z,1.73
2022-10-21T00:26:28.778Z,1.70
2022-10-21T00:29:30.757Z,2.45
2022-10-21T00:32:33.172Z,1.98
2022-10-21T00:35:34.987Z,1.45
2022-10-21T00:38:36.996Z,1.77
2022-10-21T00:41:39.136Z,1.70
2022-10-21T00:44:41.732Z,1.92
2022-10-21T00:48:06.418Z,3.22
2022-10-21T00:51:11.878Z,2.47
2022-10-21T00:54:14.987Z,2.70
2022-10-21T00:57:17.403Z,3.95
2022-10-21T01:00:20.231Z,2.28
2022-10-21T01:03:23.965Z,2.60
2022-10-21T01:06:27.206Z,3.92
2022-10-21T01:09:29.803Z,2.42
2022-10-21T01:12:44.695Z,3.60
2022-10-21T01:15:49.505Z,2.97
2022-10-21T01:19:18.768Z,3.10
2022-10-21T01:22:54.569Z,2.00
2022-10-21T01:25:56.265Z,2.63
2022-10-21T01:29:09.700Z,1.52
2022-10-21T01:32:13.910Z,1.90
2022-10-21T01:35:37.856Z,1.73
2022-10-21T01:38:49.977Z,2.20
2022-10-21T01:41:59.617Z,2.05
2022-10-21T01:45:31.166Z,2.40
2022-10-21T01:48:37.316Z,1.88
2022-10-21T01:51:39.998Z,1.98
2022-10-21T01:54:45.257Z,1.98
2022-10-21T01:57:52.377Z,2.30
2022-10-21T02:00:55.833Z,1.85
2022-10-21T02:04:00.144Z,0.90
2022-10-21T02:07:02.678Z,2.63
2022-10-21T02:10:04.978Z,2.25
2022-10-21T02:13:10.251Z,1.98
2022-10-21T02:16:16.667Z,2.05
2022-10-21T02:19:19.987Z,2.03
2022-10-21T02:22:22.603Z,2.47
2022-10-21T02:25:27.301Z,1.58
2022-10-21T02:28:29.184Z,2.80
2022-10-21T02:31:55.157Z,2.10
2022-10-21T02:35:35.265Z,1.55
2022-10-21T02:38:50.710Z,1.13
2022-10-21T02:41:54.483Z,2.20
2022-10-21T02:44:56.169Z,1.67
2022-10-21T02:47:58.000Z,2.08
2022-10-21T02:51:01.170Z,2.13
2022-10-21T02:54:03.112Z,1.92
2022-10-21T02:57:05.545Z,1.48
2022-10-21T03:00:08.159Z,1.60
2022-10-21T03:03:09.898Z,2.00
2022-10-21T03:06:12.122Z,1.48
2022-10-21T03:09:13.905Z,1.77
2022-10-21T03:12:15.791Z,1.85
2022-10-21T03:15:17.705Z,1.35
2022-10-21T03:18:19.468Z,2.75
2022-10-21T03:21:21.765Z,1.70
2022-10-21T03:24:28.931Z,1.88
2022-10-21T03:30:38.574Z,1.73
2022-10-21T03:33:41.203Z,1.88
2022-10-21T03:36:43.004Z,0.90
2022-10-21T03:39:45.087Z,1.40
2022-10-21T03:42:47.707Z,2.30
2022-10-21T03:45:49.457Z,1.80
2022-10-21T03:48:51.668Z,1.98
2022-10-21T03:51:53.402Z,1.58
2022-10-21T03:54:55.323Z,1.73
2022-10-21T03:57:57.460Z,1.05
2022-10-21T04:00:59.201Z,0.93
2022-10-21T04:04:01.970Z,1.95
2022-10-21T04:07:04.194Z,1.58
2022-10-21T04:10:07.060Z,1.27
2022-10-21T04:13:09.698Z,1.00
2022-10-21T04:16:15.562Z,1.25
2022-10-21T04:19:18.554Z,1.10
2022-10-21T04:22:20.371Z,1.30
2022-10-21T04:25:23.305Z,1.63
2022-10-21T04:28:25.276Z,1.45
2022-10-21T04:31:31.326Z,1.35
2022-10-21T04:37:40.254Z,1.42
2022-10-21T04:40:42.179Z,1.42
2022-10-21T04:43:44.601Z,2.30
2022-10-21T04:46:46.774Z,1.45
2022-10-21T04:49:48.719Z,1.55
2022-10-21T04:52:51.673Z,1.75
2022-10-21T04:55:54.398Z,2.22
2022-10-21T04:58:56.853Z,1.55
2022-10-21T05:01:59.185Z,2.15
2022-10-21T05:05:01.659Z,2.58
2022-10-21T05:08:09.285Z,1.52
2022-10-21T05:11:16.174Z,1.67
2022-10-21T05:14:21.671Z,2.33
2022-10-21T05:17:25.339Z,2.30
2022-10-21T05:20:27.242Z,1.75
2022-10-21T05:23:30.094Z,1.50
2022-10-21T05:26:32.513Z,2.03
2022-10-21T05:29:34.466Z,2.53
2022-10-21T05:32:36.903Z,2.30
2022-10-21T05:35:40.168Z,3.50
2022-10-21T05:38:42.926Z,2.63
2022-10-21T05:41:47.799Z,1.77
2022-10-21T05:44:50.791Z,2.10
2022-10-21T05:47:52.711Z,1.80
2022-10-21T05:50:56.233Z,3.05
2022-10-21T05:53:58.510Z,3.78
2022-10-21T05:57:02.806Z,3.28
2022-10-21T06:00:06.724Z,2.90
2022-10-21T06:03:09.019Z,2.17
2022-10-21T06:06:11.176Z,2.65
2022-10-21T06:09:13.169Z,2.53
2022-10-21T06:12:15.291Z,2.75
2022-10-21T06:15:17.443Z,2.33
2022-10-21T06:18:19.818Z,2.83
2022-10-21T06:21:22.298Z,3.92
2022-10-21T06:24:24.839Z,3.42
2022-10-21T06:27:26.763Z,3.55
2022-10-21T06:30:28.778Z,3.75
2022-10-21T06:33:31.015Z,3.42
2022-10-21T06:36:33.264Z,4.03
2022-10-21T06:39:35.064Z,4.57
2022-10-21T06:42:37.111Z,3.50
2022-10-21T06:45:39.339Z,2.38
2022-10-21T06:48:41.769Z,3.15
2022-10-21T06:51:43.777Z,2.80
2022-10-21T06:54:45.982Z,3.60
2022-10-21T06:57:48.218Z,2.75
2022-10-21T07:00:50.893Z,2.17
2022-10-21T07:03:53.386Z,2.20
2022-10-21T07:06:55.329Z,2.58
2022-10-21T07:09:58.181Z,2.70
2022-10-21T07:13:00.973Z,2.63
2022-10-21T07:16:05.886Z,2.55
2022-10-21T07:19:07.763Z,2.67
2022-10-21T07:22:10.462Z,2.10
2022-10-21T07:25:13.981Z,1.92
2022-10-21T07:28:15.954Z,2.42
2022-10-21T07:31:19.493Z,1.45
2022-10-21T07:34:21.508Z,1.73
2022-10-21T07:37:23.495Z,2.00
2022-10-21T07:40:25.654Z,1.55
2022-10-21T07:43:27.849Z,2.38
2022-10-21T07:46:30.641Z,1.80
2022-10-21T07:49:32.484Z,2.15
2022-10-21T07:52:37.101Z,1.80
2022-10-21T07:55:42.173Z,1.90
2022-10-21T07:58:44.498Z,1.40
2022-10-21T08:04:55.520Z,1.67
2022-10-21T08:07:59.049Z,2.22
2022-10-21T08:11:01.319Z,1.60
2022-10-21T08:14:06.868Z,1.50
2022-10-21T08:17:08.791Z,2.50
2022-10-21T08:20:11.199Z,2.53
2022-10-21T08:23:15.668Z,2.38
2022-10-21T08:26:17.627Z,2.63
2022-10-21T08:29:19.721Z,2.05
2022-10-21T08:32:21.659Z,1.67
2022-10-21T08:35:23.620Z,2.20
2022-10-21T08:38:25.700Z,2.42
2022-10-21T08:41:30.530Z,2.30
2022-10-21T08:44:53.986Z,2.13
2022-10-21T08:47:58.965Z,2.42
2022-10-21T08:51:01.542Z,2.25
2022-10-21T08:54:13.978Z,2.13
2022-10-21T08:57:16.318Z,2.70
2022-10-21T09:00:24.155Z,2.95
2022-10-21T09:03:40.982Z,2.65
2022-10-21T09:06:48.679Z,2.50
2022-10-21T09:09:57.397Z,2.67
2022-10-21T09:13:17.856Z,2.42
2022-10-21T09:16:24.147Z,2.47
2022-10-21T09:20:04.022Z,2.07
2022-10-21T09:23:43.600Z,3.65
2022-10-21T09:26:48.379Z,3.25
2022-10-21T09:29:55.113Z,2.30
2022-10-21T09:32:59.420Z,3.47
2022-10-21T09:36:12.110Z,2.08
2022-10-21T09:39:24.839Z,3.35
2022-10-21T09:42:46.381Z,2.67
2022-10-21T09:45:48.910Z,2.13
2022-10-21T09:52:22.973Z,2.58
2022-10-21T09:55:25.487Z,2.20
2022-10-21T09:58:45.274Z,2.03
2022-10-21T10:01:48.306Z,1.73
2022-10-21T10:04:50.568Z,2.95
2022-10-21T10:07:52.532Z,1.60
2022-10-21T10:11:09.563Z,2.10
2022-10-21T10:14:33.410Z,1.83
2022-10-21T10:17:38.639Z,2.03
2022-10-21T10:20:40.550Z,1.90
2022-10-21T10:23:50.865Z,2.00
2022-10-21T10:26:52.622Z,1.92
2022-10-21T10:29:55.941Z,1.77
2022-10-21T10:32:58.023Z,0.90
2022-10-21T10:36:03.334Z,1.00
2022-10-21T10:39:09.562Z,0.85
2022-10-21T10:42:19.262Z,1.10
2022-10-21T10:45:22.810Z,1.60
2022-10-21T10:48:28.471Z,1.95
2022-10-21T10:51:32.638Z,1.92
2022-10-21T10:54:35.050Z,1.77
2022-10-21T10:57:45.896Z,1.83
2022-10-21T11:00:56.317Z,1.35
2022-10-21T11:04:05.420Z,1.27
2022-10-21T11:07:20.835Z,1.75
2022-10-21T11:10:31.074Z,1.23
2022-10-21T11:13:39.984Z,1.55
2022-10-21T11:17:01.391Z,1.88
2022-10-21T11:20:08.461Z,1.75
2022-10-21T11:26:39.373Z,1.80
2022-10-21T11:30:05.093Z,1.58
2022-10-21T11:33:25.819Z,1.88
2022-10-21T11:36:46.315Z,1.77
2022-10-21T11:40:16.128Z,1.98
2022-10-21T11:44:06.101Z,1.88
2022-10-21T11:47:13.689Z,1.88
2022-10-21T11:50:27.884Z,1.33
2022-10-21T11:53:57.082Z,1.90
2022-10-21T11:57:50.349Z,2.08
2022-10-21T12:01:10.491Z,1.67
2022-10-21T12:04:25.212Z,1.80
2022-10-21T12:07:45.213Z,1.85
2022-10-21T12:11:24.357Z,1.58
2022-10-21T12:14:48.889Z,1.40
2022-10-21T12:17:50.865Z,1.73
2022-10-21T12:20:54.343Z,1.77
2022-10-21T12:24:07.064Z,1.63
2022-10-21T12:27:16.781Z,2.00
2022-10-21T12:30:54.034Z,2.05
2022-10-21T12:33:58.737Z,1.95
2022-10-21T12:37:02.285Z,1.30
2022-10-21T12:40:10.695Z,1.95
2022-10-21T12:43:28.796Z,2.17
2022-10-21T12:46:40.156Z,1.48
2022-10-21T12:49:43.848Z,1.75
2022-10-21T12:52:46.485Z,1.42
2022-10-21T12:55:53.806Z,2.05
2022-10-21T12:58:59.456Z,1.63
2022-10-21T13:02:08.131Z,1.60
2022-10-21T13:05:10.011Z,1.83
2022-10-21T13:08:14.737Z,1.70
2022-10-21T13:11:37.590Z,2.05
2022-10-21T13:14:58.580Z,1.60
2022-10-21T13:18:00.467Z,1.88
2022-10-21T13:21:02.315Z,1.42
2022-10-21T13:24:16.018Z,2.13
2022-10-21T13:27:32.306Z,2.35
2022-10-21T13:30:36.791Z,2.10
2022-10-21T13:33:39.456Z,2.30
2022-10-21T13:36:43.907Z,2.03
2022-10-21T13:39:49.296Z,1.98
2022-10-21T13:43:01.234Z,2.42
2022-10-21T13:46:12.311Z,2.05
2022-10-21T13:49:32.985Z,1.85
2022-10-21T13:52:34.792Z,2.28
2022-10-21T13:55:37.070Z,2.42
2022-10-21T13:58:39.658Z,2.60
2022-10-21T14:01:47.704Z,2.55
2022-10-21T14:04:49.506Z,2.10
2022-10-21T14:07:51.238Z,2.63
2022-10-21T14:10:53.867Z,2.38
2022-10-21T14:14:03.048Z,2.30
2022-10-21T14:17:09.734Z,2.05
2022-10-21T14:20:20.723Z,1.65
2022-10-21T14:23:24.215Z,1.63
2022-10-21T14:26:30.990Z,2.35
2022-10-21T14:29:34.984Z,2.08
2022-10-21T14:32:37.410Z,2.10
2022-10-21T14:35:39.392Z,2.30
2022-10-21T14:38:43.141Z,2.22
2022-10-21T14:41:46.210Z,2.40
2022-10-21T14:44:51.212Z,1.85
2022-10-21T14:48:02.366Z,2.13
2022-10-21T14:51:09.809Z,1.92
2022-10-21T14:54:29.580Z,2.28
2022-10-21T14:58:06.882Z,1.88
2022-10-21T15:01:12.245Z,2.28
2022-10-21T15:04:40.642Z,2.65
2022-10-21T15:07:42.479Z,1.92
2022-10-21T15:10:44.362Z,2.33
2022-10-21T15:14:00.719Z,2.70
2022-10-21T15:17:04.565Z,2.08
2022-10-21T15:20:15.821Z,2.40
2022-10-21T15:23:20.265Z,2.40
2022-10-21T15:26:31.873Z,1.73
2022-10-21T15:29:42.380Z,2.20
2022-10-21T15:32:45.624Z,2.42
2022-10-21T15:36:08.744Z,2.35
2022-10-21T15:39:11.200Z,2.20
2022-10-21T15:42:16.239Z,2.40
2022-10-21T15:45:21.478Z,2.17
2022-10-21T15:48:23.515Z,2.53
2022-10-21T15:51:25.365Z,2.67
2022-10-21T15:54:27.346Z,3.10
2022-10-21T15:57:29.340Z,2.20
2022-10-21T16:00:33.196Z,2.25
2022-10-21T16:03:37.311Z,2.17
2022-10-21T16:06:40.046Z,2.17
2022-10-21T16:09:41.846Z,2.30
2022-10-21T16:12:44.424Z,2.83
2022-10-21T16:15:46.439Z,2.83
2022-10-21T16:18:48.998Z,2.10
2022-10-21T16:21:51.271Z,2.67
2022-10-21T16:24:53.168Z,2.58
2022-10-21T16:27:56.482Z,2.78
2022-10-21T16:30:59.785Z,3.42
2022-10-21T16:34:01.626Z,2.95
2022-10-21T16:37:11.234Z,3.13
2022-10-21T16:40:15.680Z,3.03
2022-10-21T16:43:18.139Z,2.42
2022-10-21T16:46:36.476Z,2.00
2022-10-21T16:49:38.859Z,2.22
2022-10-21T16:52:42.863Z,3.63
2022-10-21T16:55:44.724Z,1.38
2022-10-21T16:58:46.804Z,2.10
2022-10-21T17:01:48.748Z,2.03
2022-10-21T17:04:51.182Z,2.15
2022-10-21T17:07:54.197Z,1.73
2022-10-21T17:10:56.223Z,2.58
2022-10-21T17:13:58.599Z,2.67
2022-10-21T17:17:00.614Z,2.08
2022-10-21T17:20:02.828Z,2.30
2022-10-21T17:23:05.095Z,3.47
2022-10-21T17:26:07.246Z,1.98
2022-10-21T17:29:11.044Z,2.53
2022-10-21T17:32:13.282Z,2.88
2022-10-21T17:35:21.618Z,2.35
2022-10-21T17:38:23.627Z,3.15
2022-10-21T17:41:25.985Z,2.63
2022-10-21T17:44:28.221Z,3.00
2022-10-21T17:47:30.296Z,1.95
2022-10-21T17:50:32.813Z,2.33
2022-10-21T17:53:34.755Z,2.70
2022-10-21T17:56:37.064Z,2.08
2022-10-21T17:59:39.403Z,2.15
2022-10-21T18:02:41.582Z,1.80
2022-10-21T18:05:44.884Z,1.35
2022-10-21T18:08:47.335Z,1.27
2022-10-21T18:11:49.522Z,1.25
2022-10-21T18:14:51.814Z,1.52
2022-10-21T18:17:54.875Z,1.30
2022-10-21T18:21:05.392Z,1.67
2022-10-21T18:24:12.348Z,1.50
2022-10-21T18:27:14.915Z,3.22
2022-10-21T18:30:17.540Z,1.65
2022-10-21T18:33:20.375Z,1.65
2022-10-21T18:36:23.304Z,1.27
2022-10-21T18:39:25.951Z,1.65
2022-10-21T18:42:28.557Z,1.77
2022-10-21T18:45:30.745Z,1.73
2022-10-21T18:48:32.562Z,1.85
2022-10-21T18:51:34.814Z,1.92
2022-10-21T18:54:36.993Z,1.80
2022-10-21T18:57:39.662Z,2.00
2022-10-21T19:00:42.110Z,1.75
2022-10-21T19:03:54.626Z,1.20
2022-10-21T19:06:56.844Z,1.85
2022-10-21T19:09:59.107Z,1.25
2022-10-21T19:13:01.126Z,1.30
2022-10-21T19:16:03.225Z,1.45
2022-10-21T19:19:05.327Z,2.00
2022-10-21T19:22:07.622Z,8.45
2022-10-21T19:25:10.384Z,10.60
2022-10-21T19:28:12.394Z,11.35
2022-10-21T19:31:15.010Z,12.30
2022-10-21T19:34:21.179Z,12.68
2022-10-21T19:37:24.136Z,13.45
2022-10-21T19:40:26.522Z,14.02
2022-10-21T19:43:30.478Z,15.63
2022-10-21T19:46:34.522Z,14.93
2022-10-21T19:49:37.118Z,28.45
2022-10-21T19:52:40.348Z,21.70
2022-10-21T19:55:42.887Z,19.70
2022-10-21T19:58:48.579Z,17.77
2022-10-21T20:01:50.877Z,16.38
2022-10-21T20:04:53.164Z,16.40
2022-10-21T20:07:55.190Z,15.43
2022-10-21T20:11:02.318Z,15.93
2022-10-21T20:14:04.703Z,16.00
2022-10-21T20:17:07.744Z,15.27
2022-10-21T20:20:10.628Z,16.23
2022-10-21T20:23:19.348Z,10.88
2022-10-21T20:26:22.984Z,12.15
2022-10-21T20:29:25.662Z,9.45
2022-10-21T20:32:28.756Z,3.15
2022-10-21T20:35:31.917Z,2.72
2022-10-21T20:38:34.485Z,3.80
2022-10-21T20:41:38.368Z,3.35
2022-10-21T20:44:40.456Z,2.70
2022-10-21T20:47:42.767Z,10.05
2022-10-21T20:50:45.543Z,3.58
2022-10-21T20:53:49.425Z,3.97
2022-10-21T20:56:52.064Z,4.97
2022-10-21T20:59:53.958Z,3.58
2022-10-21T21:06:02.124Z,3.80
2022-10-21T21:12:26.439Z,6.07
2022-10-21T21:15:28.693Z,4.55
2022-10-21T21:18:30.688Z,1.52
2022-10-21T21:21:34.830Z,1.70
2022-10-21T21:24:37.303Z,1.27
2022-10-21T21:27:39.209Z,1.40
2022-10-21T21:30:41.905Z,1.77
2022-10-21T21:33:45.512Z,1.73
2022-10-21T21:36:47.549Z,2.28
2022-10-21T21:39:50.001Z,2.45
2022-10-21T21:42:51.784Z,1.98
2022-10-21T21:45:53.593Z,1.50
2022-10-21T21:49:00.944Z,2.15
2022-10-21T21:52:04.749Z,1.77
2022-10-21T21:55:07.165Z,2.15
2022-10-21T21:58:10.749Z,1.98
2022-10-21T22:01:18.613Z,1.45
2022-10-21T22:04:20.697Z,2.03
2022-10-21T22:07:22.455Z,3.05
2022-10-21T22:10:24.952Z,1.48
2022-10-21T22:13:27.176Z,2.95
2022-10-21T22:16:30.519Z,2.65
2022-10-21T22:19:33.122Z,1.80
2022-10-21T22:22:35.642Z,2.50
2022-10-21T22:25:38.309Z,1.65
2022-10-21T22:28:40.937Z,1.77
2022-10-21T22:31:42.959Z,2.35
2022-10-21T22:34:45.774Z,2.80
2022-10-21T22:37:47.595Z,5.30
2022-10-21T22:40:57.310Z,2.00
2022-10-21T22:43:59.256Z,2.20
2022-10-21T22:47:01.478Z,2.28
2022-10-21T22:50:03.521Z,2.13
2022-10-21T22:53:06.725Z,2.45
2022-10-21T22:56:08.802Z,2.28
2022-10-21T22:59:10.625Z,5.28
2022-10-21T23:02:13.048Z,5.05
2022-10-21T23:05:15.095Z,4.63
2022-10-21T23:08:17.859Z,2.58
2022-10-21T23:11:19.660Z,2.95
2022-10-21T23:14:21.352Z,1.27
2022-10-21T23:17:25.720Z,1.30
2022-10-21T23:20:27.608Z,1.77
2022-10-21T23:23:30.190Z,1.73
2022-10-21T23:26:32.280Z,1.75
2022-10-21T23:29:34.258Z,1.95
2022-10-21T23:32:36.260Z,2.03
2022-10-21T23:35:38.057Z,3.97
2022-10-21T23:38:39.937Z,1.75
2022-10-21T23:41:41.828Z,1.90
2022-10-21T23:44:43.895Z,2.47
2022-10-21T23:47:46.438Z,10.80
2022-10-21T23:50:48.466Z,2.58
2022-10-21T23:53:50.210Z,2.67
2022-10-21T23:56:52.313Z,2.67
2022-10-21T23:59:54.275Z,2.50
